Axtell, Utah
Current Conditions -  °F | °C
As of 1:55 PM on Thursday 18 Dec 2014 (Local Time) from KDTA Reporting Station
Clear Clear  
Wind Chill: 42°   Ceiling: Unl
Heat Index: 42°   Visibility: 10mi
Dew Point: 30°   Wind: 3mph
Humidity: 61%   Direction: 200°SSW
Pressure: 30.12"   Gusts: NA
Location:  39.06°N, 111.82°W
Report Text: KDTA 182055Z AUTO 20003KT 10SM CLR 06/M01 A3012 RMK AO1 T00581011
Loading
Personal Weather Stations






























Interactive Weather Map New forecast layout! Learn more

10-Day Weather Forecast

Advertisements
Track Severe Weather on mobile